Aviation Digital Data Service (ADDS)

Output produced by METARs form (1128 UTC 23 June 2021)
found at http://www.aviationweather.gov/metar/data/
 
LHKE 231115Z 26006KT 170V340 CAVOK 33/13 Q1014 R12/01//95 NOSIG RMK BLU
LHKE 231045Z 29008KT 220V330 CAVOK 33/13 Q1014 R12/01//95 NOSIG RMK BLU
LHKE 231015Z 28008KT 220V320 CAVOK 33/13 Q1014 R12/01//95 NOSIG RMK BLU
LHKE 230945Z 28006KT 230V340 CAVOK 32/14 Q1014 R12/01//95 NOSIG RMK BLU
LHKE 230915Z 25006KT 190V320 CAVOK 32/12 Q1014 R12/01//95 NOSIG RMK BLU
LHKE 230845Z 29006KT 250V330 CAVOK 31/13 Q1014 R12/01//95 NOSIG RMK BLU
LHKE 230815Z 27006KT 170V330 CAVOK 30/13 Q1014 R12/01//95 NOSIG RMK BLU
LHKE 230745Z 29008KT 250V320 CAVOK 30/13 Q1014 R12/01//95 NOSIG RMK BLU
LHKE 230715Z 28008KT CAVOK 30/14 Q1014 R12/01//95 NOSIG RMK BLU
LHKE 230645Z 28008KT CAVOK 29/14 Q1014 R12/01//95 NOSIG RMK BLU
LHKE 230615Z 26008KT 230V300 CAVOK 28/15 Q1013 R12/01//95 NOSIG RMK BLU
LHKE 230545Z 26006KT 230V290 CAVOK 27/16 Q1013 R12/01//95 NOSIG RMK BLU
TAF LHKE 231115Z 2312/2321 28009KT CAVOK 
     BECMG 2315/2318 30005KT